Time;durP1;ratioP1;P1;durP2;ratioP2;P2;SDS_P1;SDS_P2;PMS_P1;PMS_P2;Temp;Humidity;BMP_temperature;BMP_pressure;BME280_temperature;BME280_humidity;BME280_pressure;Samples;Min_cycle;Max_cycle;Signal;HPM_P1;HPM_P2
2023/08/26 04:22:33;;;;;;;21.13;10.10;;;;;;;18.76;100.00;99827.81;5109934;27;20323;-70
2023/08/26 04:24:59;;;;;;;18.98;8.40;;;;;;;18.80;100.00;99831.72;5108512;28;20555;-71
2023/08/26 04:27:24;;;;;;;19.27;9.07;;;;;;;18.81;100.00;99833.34;5108434;28;20055;-67
2023/08/26 04:29:51;;;;;;;22.05;9.80;;;;;;;18.81;100.00;99833.34;5108197;28;20039;-69
2023/08/26 04:32:17;;;;;;;16.85;8.93;;;;;;;18.81;100.00;99836.03;5109624;28;20028;-74
2023/08/26 04:34:45;;;;;;;18.35;9.90;;;;;;;18.81;100.00;99839.56;5108382;28;20039;-71
2023/08/26 04:37:12;;;;;;;15.55;8.55;;;;;;;18.81;100.00;99839.56;5108208;28;20080;-74
2023/08/26 04:39:38;;;;;;;18.88;8.50;;;;;;;18.79;100.00;99846.25;5109166;28;20123;-73
2023/08/26 04:42:04;;;;;;;17.40;7.75;;;;;;;18.75;100.00;99845.06;5108080;28;20040;-72
2023/08/26 04:44:30;;;;;;;16.25;8.65;;;;;;;18.78;100.00;99844.59;5108104;28;20097;-70
2023/08/26 04:46:55;;;;;;;15.77;8.32;;;;;;;18.75;100.00;99847.78;5108023;28;20440;-73
2023/08/26 04:49:22;;;;;;;42.70;9.48;;;;;;;18.76;100.00;99852.09;5108096;28;20059;-69
2023/08/26 04:51:52;;;;;;;19.13;8.02;;;;;;;18.72;100.00;99862.56;5108020;28;20036;-71
2023/08/26 04:54:18;;;;;;;17.98;7.28;;;;;;;18.69;100.00;99866.53;5107870;28;20114;-69
2023/08/26 04:56:43;;;;;;;13.13;7.38;;;;;;;18.67;100.00;99871.34;5107846;28;20135;-74
2023/08/26 04:59:09;;;;;;;11.82;7.53;;;;;;;18.69;100.00;99874.63;5107551;28;20505;-69
2023/08/26 05:01:34;;;;;;;18.60;7.50;;;;;;;18.68;100.00;99883.78;5107742;28;20188;-69
2023/08/26 05:03:59;;;;;;;18.52;7.55;;;;;;;18.68;100.00;99880.28;5108994;28;20114;-72
2023/08/26 05:06:25;;;;;;;19.60;7.97;;;;;;;18.67;100.00;99881.31;5107617;28;20494;-69
2023/08/26 05:08:50;;;;;;;15.65;7.60;;;;;;;18.69;100.00;99885.41;5108687;28;20077;-69
2023/08/26 05:11:15;;;;;;;13.35;6.70;;;;;;;18.68;100.00;99894.56;5107576;28;20065;-73
2023/08/26 05:13:41;;;;;;;15.00;7.85;;;;;;;18.67;100.00;99892.94;5107553;28;20046;-69
2023/08/26 05:16:06;;;;;;;22.17;8.52;;;;;;;18.69;100.00;99895.41;5108715;28;20501;-69
2023/08/26 05:18:32;;;;;;;14.60;6.63;;;;;;;18.70;100.00;99891.63;5090434;28;20116;-72
2023/08/26 05:20:57;;;;;;;12.38;6.90;;;;;;;18.72;100.00;99886.84;5107106;28;20440;-69
2023/08/26 05:23:23;;;;;;;17.67;8.68;;;;;;;18.76;100.00;99889.88;5107278;28;20097;-68
2023/08/26 05:25:49;;;;;;;14.93;8.02;;;;;;;18.78;100.00;99891.31;5107482;28;20043;-69
2023/08/26 05:28:14;;;;;;;11.90;7.10;;;;;;;18.77;100.00;99886.94;5107177;28;20040;-70
2023/08/26 05:30:40;;;;;;;15.80;7.13;;;;;;;18.80;100.00;99891.88;5106973;28;20407;-72
2023/08/26 05:33:05;;;;;;;16.63;7.88;;;;;;;18.84;100.00;99893.03;5098271;28;20032;-68
2023/08/26 05:35:31;;;;;;;12.48;7.55;;;;;;;18.85;100.00;99894.69;5093583;28;20127;-70
2023/08/26 05:37:56;;;;;;;13.35;6.85;;;;;;;18.86;100.00;99899.03;5093503;28;20093;-69
2023/08/26 05:40:26;;;;;;;11.82;6.10;;;;;;;18.88;100.00;99904.19;5076326;28;20108;-53
2023/08/26 05:42:56;;;;;;;10.32;6.25;;;;;;;18.90;100.00;99910.97;5093375;28;20036;-52
2023/08/26 05:45:24;;;;;;;12.60;6.70;;;;;;;18.88;100.00;99902.31;5093403;28;20044;-51
2023/08/26 05:47:49;;;;;;;13.38;6.97;;;;;;;18.90;100.00;99899.38;5075535;28;20113;-52
2023/08/26 05:50:15;;;;;;;13.55;6.93;;;;;;;18.90;100.00;99910.16;5087527;28;20040;-51
2023/08/26 05:52:41;;;;;;;9.88;7.00;;;;;;;18.93;100.00;99912.41;5090315;28;20406;-54
2023/08/26 05:55:11;;;;;;;10.75;6.75;;;;;;;18.92;100.00;99914.28;5089756;28;20033;-51
2023/08/26 05:57:41;;;;;;;17.08;7.25;;;;;;;18.94;100.00;99911.34;5088307;28;20036;-53
2023/08/26 06:00:07;;;;;;;13.75;6.68;;;;;;;18.97;100.00;99909.00;5084858;28;20442;-54
2023/08/26 06:02:42;;;;;;;11.23;6.57;;;;;;;18.97;100.00;99909.00;5094371;28;20024;-53
2023/08/26 06:05:08;;;;;;;14.35;6.72;;;;;;;19.01;100.00;99909.34;5092886;28;20036;-53
2023/08/26 06:07:33;;;;;;;9.52;6.15;;;;;;;19.07;100.00;99915.69;5092908;28;20106;-56
2023/08/26 06:09:58;;;;;;;10.82;5.95;;;;;;;19.06;100.00;99922.94;5085929;28;20418;-56
2023/08/26 06:12:24;;;;;;;11.05;6.55;;;;;;;19.14;100.00;99927.16;5072728;28;20064;-55
2023/08/26 06:14:49;;;;;;;20.92;7.53;;;;;;;19.11;100.00;99924.94;5072580;28;20127;-52
2023/08/26 06:17:15;;;;;;;10.48;6.25;;;;;;;19.11;100.00;99933.88;5072458;28;20032;-53
2023/08/26 06:19:40;;;;;;;17.52;6.88;;;;;;;19.10;100.00;99940.31;5072253;28;20517;-51
2023/08/26 06:22:05;;;;;;;8.00;5.78;;;;;;;19.14;100.00;99941.47;5072230;28;20542;-53
2023/08/26 06:24:31;;;;;;;15.70;7.03;;;;;;;19.17;100.00;99922.13;5072337;28;20131;-52
2023/08/26 06:26:56;;;;;;;8.40;6.15;;;;;;;19.15;100.00;99940.41;5072218;28;20037;-54
2023/08/26 06:29:24;;;;;;;13.52;6.18;;;;;;;19.17;100.00;99949.13;5072046;28;20067;-55
2023/08/26 06:31:49;;;;;;;12.88;7.05;;;;;;;19.18;100.00;99949.94;5072342;28;20025;-54
2023/08/26 06:34:16;;;;;;;10.60;6.47;;;;;;;19.16;100.00;99952.03;5072176;28;20039;-56
2023/08/26 06:36:41;;;;;;;14.93;6.40;;;;;;;19.15;100.00;99951.22;5072142;28;20407;-53
2023/08/26 06:39:06;;;;;;;8.93;5.97;;;;;;;19.17;100.00;99951.81;5073060;28;20487;-53
2023/08/26 06:41:33;;;;;;;9.98;6.38;;;;;;;19.19;100.00;99944.28;5071985;28;20033;-51
2023/08/26 06:43:59;;;;;;;13.38;6.80;;;;;;;19.25;100.00;99929.84;5071142;28;20405;-54
2023/08/26 06:46:24;;;;;;;12.65;7.10;;;;;;;19.38;100.00;99936.06;5076819;28;20040;-56
2023/08/26 06:48:50;;;;;;;11.98;6.40;;;;;;;19.49;100.00;99937.88;5090698;28;20031;-54
2023/08/26 06:51:15;;;;;;;7.82;5.60;;;;;;;19.59;100.00;99938.13;5093159;28;20487;-55
2023/08/26 06:53:40;;;;;;;6.97;5.30;;;;;;;19.65;100.00;99939.06;5091252;28;20122;-51
2023/08/26 06:56:06;;;;;;;9.05;6.03;;;;;;;19.70;100.00;99931.88;5092802;28;20035;-52
2023/08/26 06:58:31;;;;;;;13.05;5.60;;;;;;;19.65;100.00;99942.59;5091405;28;20036;-54
2023/08/26 07:00:57;;;;;;;10.98;5.60;;;;;;;19.64;100.00;99942.81;5092501;28;20040;-56
2023/08/26 07:03:24;;;;;;;8.63;4.70;;;;;;;19.59;100.00;99951.63;5092815;28;20032;-56
2023/08/26 07:05:50;;;;;;;8.90;5.22;;;;;;;19.58;100.00;99939.19;5092839;28;20470;-52
2023/08/26 07:08:16;;;;;;;9.80;4.85;;;;;;;19.53;100.00;99936.34;5092850;28;20085;-56
2023/08/26 07:10:42;;;;;;;7.45;4.82;;;;;;;19.54;100.00;99935.28;5092297;28;20036;-54
2023/08/26 07:13:08;;;;;;;7.38;4.78;;;;;;;19.52;100.00;99940.13;5092888;28;20048;-55
2023/08/26 07:15:34;;;;;;;12.18;4.70;;;;;;;19.39;100.00;99946.59;5087855;28;20088;-52
2023/08/26 07:18:00;;;;;;;7.53;4.47;;;;;;;19.30;100.00;99955.31;5082417;28;20020;-56
2023/08/26 07:20:25;;;;;;;9.23;4.85;;;;;;;19.31;100.00;99952.38;5081124;28;20510;-56
2023/08/26 07:22:51;;;;;;;7.45;4.53;;;;;;;19.25;100.00;99947.94;5083753;28;20035;-54
2023/08/26 07:25:17;;;;;;;5.00;3.90;;;;;;;19.18;100.00;99955.34;5082594;28;20444;-56
2023/08/26 07:27:43;;;;;;;9.33;4.90;;;;;;;19.21;100.00;99947.56;5082810;28;20031;-52
2023/08/26 07:30:09;;;;;;;9.02;4.78;;;;;;;19.21;100.00;99950.28;5080800;28;20028;-53
2023/08/26 07:32:34;;;;;;;8.35;5.13;;;;;;;19.18;100.00;99956.16;5082818;28;20482;-56
2023/08/26 07:35:00;;;;;;;8.23;5.60;;;;;;;19.16;100.00;99960.94;5082057;28;20085;-55
2023/08/26 07:37:25;;;;;;;10.32;4.90;;;;;;;19.16;100.00;99966.34;5081937;28;20040;-52
2023/08/26 07:39:50;;;;;;;10.32;5.35;;;;;;;19.15;100.00;99967.41;5082743;28;20044;-54
2023/08/26 07:42:16;;;;;;;8.05;5.43;;;;;;;19.14;100.00;99962.25;5081519;28;20032;-53
2023/08/26 07:44:42;;;;;;;8.25;4.45;;;;;;;19.13;100.00;99939.84;5081633;28;20107;-55
2023/08/26 07:47:07;;;;;;;7.63;4.93;;;;;;;19.23;100.00;99923.03;5082807;28;20046;-52
2023/08/26 07:49:32;;;;;;;6.82;4.43;;;;;;;19.34;100.00;99916.78;5080578;28;20064;-57
2023/08/26 07:51:58;;;;;;;7.47;4.22;;;;;;;19.46;100.00;99916.78;5081869;28;20056;-53
2023/08/26 07:54:24;;;;;;;6.90;4.03;;;;;;;19.57;100.00;99917.81;5082541;28;20037;-55
2023/08/26 07:56:49;;;;;;;6.25;3.80;;;;;;;19.67;100.00;99924.25;5086111;28;20036;-54
2023/08/26 07:59:14;;;;;;;7.63;4.43;;;;;;;19.79;100.00;99935.81;5091884;28;20054;-54
2023/08/26 08:01:40;;;;;;;5.57;3.95;;;;;;;19.93;100.00;99932.84;5092308;28;20034;-67
2023/08/26 08:04:05;;;;;;;7.18;4.25;;;;;;;20.01;100.00;99932.44;5092207;28;20043;-67
2023/08/26 08:06:31;;;;;;;6.65;4.00;;;;;;;20.05;100.00;99925.50;5091953;28;20114;-67
2023/08/26 08:08:56;;;;;;;8.38;3.67;;;;;;;20.12;100.00;99914.53;5091802;28;20071;-67
2023/08/26 08:11:22;;;;;;;8.60;4.05;;;;;;;20.19;100.00;99921.41;5091559;28;20047;-67
2023/08/26 08:13:47;;;;;;;16.23;10.07;;;;;;;20.38;100.00;99923.88;5092013;28;20043;-67
2023/08/26 08:16:13;;;;;;;6.78;3.60;;;;;;;20.49;100.00;99937.38;5091965;28;20035;-68
2023/08/26 08:18:38;;;;;;;6.28;4.30;;;;;;;20.55;100.00;99925.56;5091897;28;20040;-67
2023/08/26 08:21:04;;;;;;;8.00;4.38;;;;;;;20.53;100.00;99924.97;5091821;28;20039;-68
2023/08/26 08:23:30;;;;;;;7.00;5.18;;;;;;;20.64;100.00;99931.38;5091979;28;20039;-68
2023/08/26 08:25:55;;;;;;;6.47;3.38;;;;;;;20.65;100.00;99933.00;5091847;28;20587;-67
2023/08/26 08:28:20;;;;;;;4.65;2.90;;;;;;;20.51;97.14;99939.81;5091886;28;20024;-67
2023/08/26 08:30:46;;;;;;;3.30;2.75;;;;;;;20.58;100.00;99951.31;5091643;28;20041;-67
2023/08/26 08:33:11;;;;;;;8.48;3.75;;;;;;;20.70;100.00;99943.94;5091839;28;20064;-67
2023/08/26 08:35:37;;;;;;;7.60;3.15;;;;;;;20.62;98.06;99941.66;5091637;28;20036;-67
2023/08/26 08:38:02;;;;;;;6.45;3.40;;;;;;;20.71;95.62;99942.84;5080018;28;20044;-67
2023/08/26 08:40:28;;;;;;;8.60;3.20;;;;;;;20.80;98.19;99949.50;5071331;28;20694;-67
2023/08/26 08:42:57;;;;;;;5.65;2.72;;;;;;;20.81;96.99;99955.75;5071538;28;20048;-68
2023/08/26 08:45:25;;;;;;;3.75;2.53;;;;;;;20.80;96.35;99964.91;5071425;28;20033;-67
2023/08/26 08:47:53;;;;;;;6.25;2.63;;;;;;;20.57;90.29;99963.19;5071475;28;20072;-67
2023/08/26 08:50:21;;;;;;;4.97;2.50;;;;;;;20.48;90.08;99959.28;5071087;28;20044;-67
2023/08/26 08:52:49;;;;;;;3.95;2.55;;;;;;;20.44;93.12;99955.38;5071515;28;20036;-67
2023/08/26 08:55:14;;;;;;;7.13;2.10;;;;;;;20.38;91.48;99957.16;5071360;28;20094;-67
2023/08/26 08:57:41;;;;;;;6.63;2.47;;;;;;;20.38;90.25;99972.56;5071369;28;20049;-67
2023/08/26 09:00:07;;;;;;;4.22;2.28;;;;;;;20.30;88.84;99974.63;5071174;28;20033;-67
2023/08/26 09:02:38;;;;;;;2.97;2.33;;;;;;;20.27;91.07;99976.97;5071368;28;20082;-67
2023/08/26 09:05:04;;;;;;;3.50;1.88;;;;;;;20.30;88.60;99971.09;5071289;28;20479;-67
2023/08/26 09:07:30;;;;;;;2.70;1.80;;;;;;;20.37;86.15;99976.34;5071966;28;20039;-67
2023/08/26 09:09:57;;;;;;;3.58;1.80;;;;;;;20.45;87.84;99952.44;5074791;28;20067;-67
2023/08/26 09:12:22;;;;;;;4.50;1.90;;;;;;;20.54;89.68;99967.22;5074986;28;20036;-67
2023/08/26 09:14:48;;;;;;;2.75;1.63;;;;;;;20.65;89.36;99957.38;5074978;28;20032;-69
2023/08/26 09:17:18;;;;;;;4.47;1.90;;;;;;;20.80;83.09;99956.78;5074699;28;20040;-69
2023/08/26 09:19:58;;;;;;;5.10;2.03;;;;;;;20.93;82.71;99955.63;5074700;28;20430;-69
2023/08/26 09:22:28;;;;;;;6.70;2.45;;;;;;;21.13;87.30;99954.06;5074792;28;20119;-68
2023/08/26 09:25:01;;;;;;;4.53;2.38;;;;;;;21.24;86.53;99952.28;5074771;28;20036;-68
2023/08/26 09:27:26;;;;;;;4.78;1.85;;;;;;;21.40;80.80;99946.03;5074593;28;20040;-69
2023/08/26 09:29:53;;;;;;;3.47;1.90;;;;;;;21.46;85.32;99940.69;5074364;28;20031;-69
2023/08/26 09:32:30;;;;;;;4.70;1.92;;;;;;;21.74;76.36;99926.13;5074548;28;20075;-69
2023/08/26 09:35:08;;;;;;;3.42;1.52;;;;;;;21.90;76.14;99909.75;5074826;28;20032;-69
2023/08/26 09:37:33;;;;;;;3.92;1.65;;;;;;;22.16;75.67;99921.69;5074569;28;20036;-69
2023/08/26 09:39:58;;;;;;;2.65;1.63;;;;;;;22.00;74.13;99935.34;5072963;28;20112;-69
2023/08/26 09:42:24;;;;;;;5.85;1.50;;;;;;;21.91;67.42;99935.81;5074469;28;20041;-69
2023/08/26 09:44:49;;;;;;;2.63;1.67;;;;;;;21.94;69.15;99938.00;5074647;28;20407;-69
2023/08/26 09:47:15;;;;;;;1.83;1.23;;;;;;;21.94;70.21;99931.75;5074462;28;20048;-69
2023/08/26 09:49:48;;;;;;;1.88;1.45;;;;;;;21.71;72.77;99934.75;5074307;28;20036;-69
2023/08/26 09:52:13;;;;;;;2.45;1.67;;;;;;;21.81;73.46;99932.16;5074368;28;20029;-68
2023/08/26 09:54:41;;;;;;;2.95;1.50;;;;;;;21.76;71.39;99932.09;5084523;28;20367;-69
2023/08/26 09:57:07;;;;;;;3.30;1.50;;;;;;;21.74;68.23;99929.63;5094385;28;20040;-69
2023/08/26 09:59:32;;;;;;;1.90;1.17;;;;;;;21.89;70.13;99928.97;5094227;28;20040;-68
2023/08/26 10:02:01;;;;;;;2.17;1.63;;;;;;;21.80;73.60;99931.34;5094429;28;20486;-69
2023/08/26 10:04:32;;;;;;;3.08;1.58;;;;;;;21.67;72.60;99931.72;5094294;28;20044;-69
2023/08/26 10:07:00;;;;;;;4.20;1.70;;;;;;;21.63;72.46;99925.16;5094308;28;20039;-68
2023/08/26 10:09:50;;;;;;;5.88;1.40;;;;;;;21.52;75.41;99923.44;5093903;28;20064;-69
2023/08/26 10:12:21;;;;;;;2.28;1.40;;;;;;;21.28;73.18;99920.97;5094223;28;20081;-69
2023/08/26 10:14:50;;;;;;;3.15;1.55;;;;;;;21.25;74.87;99926.84;5094183;28;20067;-68
2023/08/26 10:17:20;;;;;;;2.33;1.60;;;;;;;21.05;72.25;99927.38;5094167;28;20130;-68
2023/08/26 10:19:47;;;;;;;3.97;1.67;;;;;;;21.06;76.34;99947.16;5093705;28;20062;-68
2023/08/26 10:22:13;;;;;;;3.05;1.45;;;;;;;20.94;76.23;99954.59;5094136;28;20035;-68
2023/08/26 10:24:39;;;;;;;3.83;1.67;;;;;;;20.91;82.15;99947.75;5094304;28;20153;-68
2023/08/26 10:27:06;;;;;;;2.47;1.80;;;;;;;20.90;79.24;99931.78;5093989;28;20084;-68
2023/08/26 10:29:34;;;;;;;3.60;1.60;;;;;;;20.79;80.77;99937.03;5093620;28;20494;-68
2023/08/26 10:32:18;;;;;;;2.70;1.60;;;;;;;20.68;79.75;99951.47;5093838;28;20024;-68
2023/08/26 10:35:09;;;;;;;3.75;2.10;;;;;;;20.49;83.01;99944.69;5093799;28;20177;-68
2023/08/26 10:37:34;;;;;;;2.30;1.50;;;;;;;20.50;85.02;99944.44;5093673;28;20055;-68
2023/08/26 10:40:08;;;;;;;2.28;1.65;;;;;;;20.41;82.93;99939.63;5093432;28;20044;-68
2023/08/26 10:42:35;;;;;;;3.00;1.70;;;;;;;20.46;85.16;99932.44;5093627;28;20124;-68
2023/08/26 10:45:02;;;;;;;2.30;1.70;;;;;;;20.55;84.98;99919.34;5093619;28;20039;-68
2023/08/26 10:47:40;;;;;;;3.03;1.80;;;;;;;20.67;79.08;99922.78;5093533;28;20035;-68
2023/08/26 10:50:25;;;;;;;4.10;2.13;;;;;;;20.61;82.05;99918.34;5091907;28;20040;-68
2023/08/26 10:53:12;;;;;;;4.60;1.85;;;;;;;20.73;82.38;99926.38;5093483;28;20071;-68
2023/08/26 10:55:37;;;;;;;5.75;2.00;;;;;;;20.66;83.71;99929.25;5093426;28;20040;-68
2023/08/26 10:58:13;;;;;;;3.40;1.80;;;;;;;20.65;85.40;99935.72;5093318;28;20073;-68
2023/08/26 11:00:45;;;;;;;3.80;2.60;;;;;;;20.61;86.02;99948.13;5093084;28;20032;-68
2023/08/26 11:03:11;;;;;;;2.63;1.95;;;;;;;20.43;88.36;99945.63;5093307;28;20071;-68
2023/08/26 11:05:39;;;;;;;5.97;2.65;;;;;;;20.34;88.40;99956.00;5093120;28;20078;-68
2023/08/26 11:08:05;;;;;;;7.82;3.58;;;;;;;20.30;89.29;99946.75;5093300;28;20032;-68
2023/08/26 11:10:32;;;;;;;7.47;4.10;;;;;;;20.28;88.49;99936.19;5092783;28;20177;-68
2023/08/26 11:12:58;;;;;;;2.95;2.00;;;;;;;20.21;89.42;99959.03;5093114;28;20039;-68
2023/08/26 11:15:24;;;;;;;4.40;2.20;;;;;;;20.20;87.50;99950.09;5092991;28;20471;-69
2023/08/26 11:17:49;;;;;;;4.93;2.92;;;;;;;20.25;88.45;99935.84;5092918;28;20461;-68
2023/08/26 11:20:18;;;;;;;3.55;1.80;;;;;;;20.25;92.57;99952.06;5092640;28;20093;-68
2023/08/26 11:22:45;;;;;;;3.33;2.25;;;;;;;20.19;91.02;99951.16;5092962;28;20032;-68
2023/08/26 11:25:14;;;;;;;5.22;2.25;;;;;;;20.14;91.04;99950.25;5092756;28;20034;-68
2023/08/26 11:27:39;;;;;;;3.70;2.20;;;;;;;20.00;87.72;99955.94;5092828;28;20571;-68
2023/08/26 11:30:09;;;;;;;3.40;1.98;;;;;;;19.92;88.10;99960.94;5092025;28;20044;-68
2023/08/26 11:32:38;;;;;;;4.63;1.95;;;;;;;19.89;89.33;99953.31;5092596;28;20036;-68
2023/08/26 11:35:09;;;;;;;2.83;1.80;;;;;;;19.90;85.76;99942.25;5092723;28;20092;-68
2023/08/26 11:37:35;;;;;;;5.63;2.60;;;;;;;19.95;85.40;99949.63;5092559;28;20046;-68
2023/08/26 11:40:05;;;;;;;2.03;1.40;;;;;;;19.88;85.24;99946.25;5092407;28;20107;-68
2023/08/26 11:42:30;;;;;;;3.33;1.73;;;;;;;19.88;85.41;99951.66;5092575;28;20111;-68
2023/08/26 11:44:56;;;;;;;3.03;1.65;;;;;;;19.88;87.80;99951.66;5087847;28;20115;-69
2023/08/26 11:47:23;;;;;;;3.10;1.60;;;;;;;19.72;87.02;99955.94;5072114;28;20044;-68
2023/08/26 11:49:48;;;;;;;2.45;1.58;;;;;;;19.64;85.63;99946.34;5071999;28;20047;-68
2023/08/26 11:52:14;;;;;;;2.53;1.58;;;;;;;19.61;87.05;99960.31;5072109;28;20033;-68
2023/08/26 11:54:39;;;;;;;2.55;1.90;;;;;;;19.66;86.56;99956.91;5072098;28;20376;-68
2023/08/26 11:57:05;;;;;;;2.28;1.67;;;;;;;19.56;88.76;99968.31;5072074;28;20521;-68
2023/08/26 11:59:38;;;;;;;3.05;1.50;;;;;;;19.56;89.03;99976.41;5071866;28;20403;-68
2023/08/26 12:02:21;;;;;;;2.38;1.60;;;;;;;19.50;87.88;99980.06;5072105;28;20029;-67
2023/08/26 12:04:54;;;;;;;3.20;1.50;;;;;;;19.41;87.01;99970.66;5071975;28;20040;-67
2023/08/26 12:07:19;;;;;;;3.03;1.40;;;;;;;19.42;88.20;99985.81;5072034;28;20045;-67
2023/08/26 12:09:45;;;;;;;2.20;1.70;;;;;;;19.36;82.81;99986.75;5071699;28;20509;-67
2023/08/26 12:12:10;;;;;;;2.42;1.58;;;;;;;19.37;83.13;99983.84;5071874;28;20037;-67
2023/08/26 12:14:35;;;;;;;4.20;1.27;;;;;;;19.28;84.41;99979.84;5071887;28;20053;-67
2023/08/26 12:17:03;;;;;;;3.08;1.90;;;;;;;19.33;82.59;99971.88;5071855;28;20106;-67
2023/08/26 12:19:33;;;;;;;3.10;1.60;;;;;;;19.38;82.59;99963.88;5071655;28;20040;-68
2023/08/26 12:21:59;;;;;;;1.92;1.38;;;;;;;19.40;77.82;99959.06;5071737;28;20024;-67
2023/08/26 12:24:24;;;;;;;2.50;1.30;;;;;;;19.42;78.94;99958.81;5071870;28;20078;-67
2023/08/26 12:26:50;;;;;;;5.50;1.83;;;;;;;19.35;81.21;99966.22;5071834;28;20423;-67
2023/08/26 12:29:16;;;;;;;1.77;1.40;;;;;;;19.38;80.16;99966.56;5071540;28;20537;-67
2023/08/26 12:31:43;;;;;;;2.08;1.20;;;;;;;19.44;78.00;99971.03;5071739;28;20037;-67
2023/08/26 12:34:11;;;;;;;2.65;1.30;;;;;;;19.45;77.66;99969.97;5072047;28;20532;-67
2023/08/26 12:36:38;;;;;;;3.65;1.00;;;;;;;19.56;70.43;99967.47;5071633;28;20032;-67
2023/08/26 12:39:03;;;;;;;3.47;1.07;;;;;;;19.56;68.95;99953.97;5071468;28;20415;-66
2023/08/26 12:41:28;;;;;;;2.47;1.58;;;;;;;19.68;67.69;99966.41;5071697;28;20040;-67
2023/08/26 12:43:55;;;;;;;4.03;1.45;;;;;;;19.75;66.13;99961.69;5075014;28;20098;-67
2023/08/26 12:46:24;;;;;;;1.75;1.30;;;;;;;19.71;65.12;99968.63;5075599;28;20028;-67
2023/08/26 12:48:50;;;;;;;1.80;1.08;;;;;;;19.74;66.53;99957.34;5075334;28;20077;-67
2023/08/26 12:51:15;;;;;;;2.80;1.23;;;;;;;19.77;68.24;99961.47;5075563;28;20044;-67
2023/08/26 12:53:43;;;;;;;2.88;1.02;;;;;;;19.68;69.30;99961.00;5075479;28;20029;-68
2023/08/26 12:56:08;;;;;;;;;;;;;;;19.67;68.04;99958.53;5075738;28;20431;-67
2023/08/26 12:58:34;;;;;;;3.58;1.17;;;;;;;19.75;69.08;99960.84;5075262;28;19916;-67
2023/08/26 13:01:00;;;;;;;1.92;1.20;;;;;;;19.73;69.59;99963.81;5075119;28;20040;-67
2023/08/26 13:03:25;;;;;;;2.55;1.27;;;;;;;19.71;64.82;99947.03;5075386;28;20090;-68
2023/08/26 13:05:55;;;;;;;1.75;1.30;;;;;;;19.71;64.93;99947.03;5075247;28;20127;-67
2023/08/26 13:08:21;;;;;;;3.15;1.50;;;;;;;19.69;66.65;99949.16;5075149;28;20119;-67
2023/08/26 13:10:46;;;;;;;1.30;1.00;;;;;;;19.74;70.50;99945.72;5074761;28;20234;-67
2023/08/26 13:13:12;;;;;;;3.10;1.20;;;;;;;19.69;68.51;99949.16;5075102;28;20020;-68
2023/08/26 13:15:39;;;;;;;2.80;1.10;;;;;;;19.75;68.57;99950.88;5075003;28;20089;-67
2023/08/26 13:18:05;;;;;;;2.45;1.15;;;;;;;19.76;66.54;99946.31;5075029;28;20043;-67
2023/08/26 13:20:31;;;;;;;5.43;1.58;;;;;;;19.70;66.54;99948.09;5074627;28;20037;-68
2023/08/26 13:22:57;;;;;;;2.42;1.27;;;;;;;19.84;69.92;99966.72;5074940;28;20029;-67
2023/08/26 13:25:22;;;;;;;1.98;1.13;;;;;;;19.85;72.37;99971.88;5074723;28;20074;-68
2023/08/26 13:27:50;;;;;;;1.60;1.23;;;;;;;19.83;71.29;99970.50;5074742;28;20049;-67
2023/08/26 13:30:16;;;;;;;2.60;1.25;;;;;;;19.83;71.63;99954.28;5074512;28;20052;-68
2023/08/26 13:32:41;;;;;;;2.20;1.20;;;;;;;19.82;73.35;99963.41;5074640;28;20150;-68
2023/08/26 13:35:07;;;;;;;2.17;1.30;;;;;;;19.76;72.46;99951.72;5074644;28;20131;-67
2023/08/26 13:37:32;;;;;;;2.08;1.40;;;;;;;19.87;72.60;99956.25;5074713;28;20044;-67
2023/08/26 13:39:58;;;;;;;2.53;1.20;;;;;;;19.92;74.82;99952.81;5074333;28;20032;-68
2023/08/26 13:42:23;;;;;;;2.92;1.50;;;;;;;20.00;77.27;99949.72;5074558;28;20041;-68
2023/08/26 13:44:48;;;;;;;4.03;1.25;;;;;;;20.01;74.98;99943.25;5074588;28;20450;-67
2023/08/26 13:47:14;;;;;;;2.33;1.20;;;;;;;20.03;72.60;99928.44;5073144;28;20033;-67
2023/08/26 13:49:39;;;;;;;3.42;1.67;;;;;;;20.02;77.21;99928.69;5074170;28;20514;-66
2023/08/26 13:52:05;;;;;;;2.70;1.40;;;;;;;20.04;77.03;99932.78;5074453;28;20128;-68
2023/08/26 13:54:30;;;;;;;4.95;1.85;;;;;;;20.00;75.69;99928.91;5073830;28;20047;-68
2023/08/26 13:56:55;;;;;;;2.47;1.23;;;;;;;19.99;74.94;99932.69;5074211;28;20036;-68
2023/08/26 13:59:21;;;;;;;2.03;1.83;;;;;;;19.99;72.79;99931.88;5073965;28;20600;-68
2023/08/26 14:01:46;;;;;;;4.07;1.40;;;;;;;19.96;70.97;99932.38;5074221;28;20530;-68
2023/08/26 14:04:12;;;;;;;2.03;1.30;;;;;;;20.04;71.93;99929.25;5074204;28;20055;-68
2023/08/26 14:06:37;;;;;;;6.40;1.75;;;;;;;20.05;69.94;99925.50;5074089;28;20056;-67
2023/08/26 14:09:02;;;;;;;3.78;1.30;;;;;;;20.23;63.94;99909.06;5073774;28;20044;-68
2023/08/26 14:11:28;;;;;;;2.58;1.30;;;;;;;20.45;62.29;99897.53;5073933;28;20036;-67
2023/08/26 14:13:53;;;;;;;2.28;1.30;;;;;;;20.66;63.80;99885.94;5073950;28;20068;-68
2023/08/26 14:16:19;;;;;;;2.15;1.30;;;;;;;20.85;66.54;99881.06;5074007;28;20462;-68
2023/08/26 14:18:45;;;;;;;2.85;1.30;;;;;;;21.02;68.61;99889.16;5073891;28;20127;-68
2023/08/26 14:21:10;;;;;;;3.95;1.40;;;;;;;21.14;63.96;99895.28;5073561;28;20128;-68
2023/08/26 14:23:36;;;;;;;2.25;1.40;;;;;;;21.25;62.31;99890.81;5073656;28;20064;-68
2023/08/26 14:26:02;;;;;;;3.65;1.45;;;;;;;21.17;62.48;99893.97;5073709;28;20040;-68
2023/08/26 14:28:27;;;;;;;3.42;1.27;;;;;;;21.17;67.16;99891.25;5073661;28;20036;-68
2023/08/26 14:30:56;;;;;;;2.72;1.10;;;;;;;21.26;66.32;99887.06;5073394;28;20500;-68
2023/08/26 14:33:21;;;;;;;2.03;1.20;;;;;;;21.30;65.44;99882.78;5073676;28;20039;-68
2023/08/26 14:35:51;;;;;;;1.83;1.50;;;;;;;21.35;67.82;99872.84;5073518;28;20438;-69
2023/08/26 14:38:17;;;;;;;1.98;1.27;;;;;;;21.38;67.00;99872.31;5073496;28;20483;-69
2023/08/26 14:40:43;;;;;;;2.47;1.20;;;;;;;21.40;68.58;99856.66;5073273;28;20034;-68
2023/08/26 14:43:08;;;;;;;1.77;1.33;;;;;;;21.45;63.33;99847.72;5073419;28;20043;-68
2023/08/26 14:45:34;;;;;;;2.72;1.25;;;;;;;21.47;65.86;99832.06;5073400;28;20036;-68
2023/08/26 14:47:59;;;;;;;1.90;0.90;;;;;;;21.40;65.41;99831.44;5073290;28;20487;-68
2023/08/26 14:50:25;;;;;;;5.50;4.13;;;;;;;21.53;67.74;99827.53;5072985;28;20075;-68
2023/08/26 14:52:50;;;;;;;5.53;2.63;;;;;;;21.48;70.63;99822.03;5073080;28;20067;-68
2023/08/26 14:55:16;;;;;;;3.78;1.35;;;;;;;21.43;68.70;99825.50;5073174;28;20037;-67
2023/08/26 14:57:41;;;;;;;2.00;1.17;;;;;;;21.33;65.44;99811.88;5073117;28;20063;-67
2023/08/26 15:00:09;;;;;;;3.22;1.33;;;;;;;21.30;64.48;99801.53;5072893;28;20514;-67
2023/08/26 15:02:35;;;;;;;2.33;1.40;;;;;;;21.30;65.83;99807.75;5072967;28;20495;-67
2023/08/26 15:05:01;;;;;;;3.67;1.77;;;;;;;21.39;65.32;99806.25;5072199;28;20103;-67
2023/08/26 15:07:26;;;;;;;4.75;1.40;;;;;;;21.50;65.97;99801.72;5072884;28;20491;-67
2023/08/26 15:09:52;;;;;;;2.40;1.60;;;;;;;21.53;67.98;99819.38;5072674;28;20124;-67
2023/08/26 15:12:18;;;;;;;2.92;1.50;;;;;;;21.60;64.60;99815.41;5072817;28;20068;-68
2023/08/26 15:14:45;;;;;;;2.60;1.50;;;;;;;21.55;65.14;99825.38;5072846;28;20107;-67
2023/08/26 15:17:10;;;;;;;2.33;1.33;;;;;;;21.63;63.42;99839.25;5072702;28;20040;-67
2023/08/26 15:19:36;;;;;;;3.53;1.48;;;;;;;21.61;66.37;99837.91;5072600;28;20115;-68
2023/08/26 15:22:02;;;;;;;3.63;1.15;;;;;;;21.72;65.16;99847.78;5072647;28;20041;-68
2023/08/26 15:24:28;;;;;;;3.13;1.47;;;;;;;21.63;63.52;99849.28;5072719;28;20572;-67
2023/08/26 15:26:53;;;;;;;5.28;1.67;;;;;;;21.59;65.08;99859.03;5072530;28;20286;-68
2023/08/26 15:29:19;;;;;;;2.63;1.50;;;;;;;21.54;65.98;99856.25;5072337;28;20062;-68
2023/08/26 15:31:45;;;;;;;2.25;1.40;;;;;;;21.39;65.17;99863.13;5072718;28;20065;-68
2023/08/26 15:34:11;;;;;;;3.30;1.30;;;;;;;21.39;67.43;99871.28;5072483;28;20036;-68
2023/08/26 15:36:38;;;;;;;2.78;1.20;;;;;;;21.33;66.39;99856.03;5072443;28;20544;-68
2023/08/26 15:39:07;;;;;;;4.07;1.90;;;;;;;21.32;66.99;99854.38;5071964;28;20071;-68
2023/08/26 15:41:34;;;;;;;3.65;1.40;;;;;;;21.38;68.08;99853.34;5072558;28;20051;-68
2023/08/26 15:43:59;;;;;;;2.83;1.40;;;;;;;21.39;68.00;99859.63;5072507;28;20032;-68
2023/08/26 15:46:24;;;;;;;3.55;1.58;;;;;;;21.34;68.62;99864.97;5072183;28;20040;-67
2023/08/26 15:48:50;;;;;;;3.33;1.63;;;;;;;21.36;67.35;99869.03;5072012;28;20037;-68